sensor_id;sensor_type;location;lat;lon;timestamp;P1;durP1;ratioP1;P2;durP2;ratioP2
75928;SDS011;64606;44.062;2.986;2023-06-01T00:01:49;13.13;;;4.00;;
75928;SDS011;64606;44.062;2.986;2023-06-01T00:04:16;5.28;;;3.60;;
75928;SDS011;64606;44.062;2.986;2023-06-01T00:06:42;18.35;;;4.15;;
75928;SDS011;64606;44.062;2.986;2023-06-01T00:09:08;8.95;;;3.92;;
75928;SDS011;64606;44.062;2.986;2023-06-01T00:11:35;9.00;;;4.10;;
75928;SDS011;64606;44.062;2.986;2023-06-01T00:14:01;7.95;;;3.65;;
75928;SDS011;64606;44.062;2.986;2023-06-01T00:16:27;6.30;;;3.63;;
75928;SDS011;64606;44.062;2.986;2023-06-01T00:18:55;6.57;;;3.70;;
75928;SDS011;64606;44.062;2.986;2023-06-01T00:21:22;7.38;;;3.60;;
75928;SDS011;64606;44.062;2.986;2023-06-01T00:23:48;8.07;;;4.10;;
75928;SDS011;64606;44.062;2.986;2023-06-01T00:26:14;6.40;;;3.55;;
75928;SDS011;64606;44.062;2.986;2023-06-01T00:28:41;7.55;;;3.63;;
75928;SDS011;64606;44.062;2.986;2023-06-01T00:31:07;8.90;;;3.72;;
75928;SDS011;64606;44.062;2.986;2023-06-01T00:33:33;9.82;;;3.50;;
75928;SDS011;64606;44.062;2.986;2023-06-01T00:35:59;8.30;;;3.90;;
75928;SDS011;64606;44.062;2.986;2023-06-01T00:38:25;13.80;;;3.80;;
75928;SDS011;64606;44.062;2.986;2023-06-01T00:40:51;11.55;;;3.95;;
75928;SDS011;64606;44.062;2.986;2023-06-01T00:43:18;6.50;;;3.58;;
75928;SDS011;64606;44.062;2.986;2023-06-01T00:45:44;7.90;;;4.40;;
75928;SDS011;64606;44.062;2.986;2023-06-01T00:48:11;6.50;;;4.07;;
75928;SDS011;64606;44.062;2.986;2023-06-01T00:50:37;8.98;;;3.75;;
75928;SDS011;64606;44.062;2.986;2023-06-01T00:53:05;6.03;;;3.58;;
75928;SDS011;64606;44.062;2.986;2023-06-01T00:55:33;5.32;;;3.67;;
75928;SDS011;64606;44.062;2.986;2023-06-01T00:58:00;7.28;;;3.90;;
75928;SDS011;64606;44.062;2.986;2023-06-01T01:00:27;6.13;;;3.58;;
75928;SDS011;64606;44.062;2.986;2023-06-01T01:02:54;7.75;;;4.40;;
75928;SDS011;64606;44.062;2.986;2023-06-01T01:05:25;7.85;;;3.80;;
75928;SDS011;64606;44.062;2.986;2023-06-01T01:10:41;5.30;;;3.80;;
75928;SDS011;64606;44.062;2.986;2023-06-01T01:13:13;8.95;;;3.90;;
75928;SDS011;64606;44.062;2.986;2023-06-01T01:18:11;13.27;;;4.35;;
75928;SDS011;64606;44.062;2.986;2023-06-01T01:20:39;6.22;;;3.60;;
75928;SDS011;64606;44.062;2.986;2023-06-01T01:26:08;15.85;;;4.25;;
75928;SDS011;64606;44.062;2.986;2023-06-01T01:28:43;7.57;;;4.70;;
75928;SDS011;64606;44.062;2.986;2023-06-01T01:31:13;7.70;;;3.80;;
75928;SDS011;64606;44.062;2.986;2023-06-01T01:33:39;9.80;;;4.40;;
75928;SDS011;64606;44.062;2.986;2023-06-01T01:36:07;5.55;;;3.97;;
75928;SDS011;64606;44.062;2.986;2023-06-01T01:38:34;9.95;;;3.88;;
75928;SDS011;64606;44.062;2.986;2023-06-01T01:41:01;13.35;;;4.28;;
75928;SDS011;64606;44.062;2.986;2023-06-01T01:43:27;9.23;;;4.30;;
75928;SDS011;64606;44.062;2.986;2023-06-01T01:45:58;12.98;;;3.92;;
75928;SDS011;64606;44.062;2.986;2023-06-01T01:48:32;9.57;;;4.35;;
75928;SDS011;64606;44.062;2.986;2023-06-01T01:51:07;6.65;;;3.97;;
75928;SDS011;64606;44.062;2.986;2023-06-01T01:53:34;10.20;;;4.18;;
75928;SDS011;64606;44.062;2.986;2023-06-01T01:56:02;9.88;;;4.10;;
75928;SDS011;64606;44.062;2.986;2023-06-01T01:58:29;11.10;;;4.53;;
75928;SDS011;64606;44.062;2.986;2023-06-01T02:00:55;9.18;;;4.03;;
75928;SDS011;64606;44.062;2.986;2023-06-01T02:03:22;9.23;;;4.00;;
75928;SDS011;64606;44.062;2.986;2023-06-01T02:05:48;6.95;;;4.15;;
75928;SDS011;64606;44.062;2.986;2023-06-01T02:08:14;5.20;;;4.03;;
75928;SDS011;64606;44.062;2.986;2023-06-01T02:10:40;5.82;;;4.35;;
75928;SDS011;64606;44.062;2.986;2023-06-01T02:13:06;7.80;;;4.38;;
75928;SDS011;64606;44.062;2.986;2023-06-01T02:15:33;8.40;;;4.55;;
75928;SDS011;64606;44.062;2.986;2023-06-01T02:17:59;7.20;;;4.45;;
75928;SDS011;64606;44.062;2.986;2023-06-01T02:20:25;7.80;;;4.30;;
75928;SDS011;64606;44.062;2.986;2023-06-01T02:22:51;6.90;;;4.20;;
75928;SDS011;64606;44.062;2.986;2023-06-01T02:25:17;9.43;;;4.45;;
75928;SDS011;64606;44.062;2.986;2023-06-01T02:27:44;6.72;;;4.00;;
75928;SDS011;64606;44.062;2.986;2023-06-01T02:30:10;9.27;;;4.05;;
75928;SDS011;64606;44.062;2.986;2023-06-01T02:32:37;8.27;;;3.85;;
75928;SDS011;64606;44.062;2.986;2023-06-01T02:35:03;6.72;;;3.95;;
75928;SDS011;64606;44.062;2.986;2023-06-01T02:37:32;8.30;;;4.47;;
75928;SDS011;64606;44.062;2.986;2023-06-01T02:39:58;7.50;;;4.40;;
75928;SDS011;64606;44.062;2.986;2023-06-01T02:42:24;10.50;;;4.55;;
75928;SDS011;64606;44.062;2.986;2023-06-01T02:44:50;9.73;;;4.47;;
75928;SDS011;64606;44.062;2.986;2023-06-01T02:47:16;9.23;;;4.60;;
75928;SDS011;64606;44.062;2.986;2023-06-01T02:49:42;8.18;;;3.83;;
75928;SDS011;64606;44.062;2.986;2023-06-01T02:52:08;10.18;;;4.00;;
75928;SDS011;64606;44.062;2.986;2023-06-01T02:54:35;8.55;;;4.45;;
75928;SDS011;64606;44.062;2.986;2023-06-01T02:57:01;8.10;;;3.75;;
75928;SDS011;64606;44.062;2.986;2023-06-01T02:59:27;8.60;;;4.30;;
75928;SDS011;64606;44.062;2.986;2023-06-01T03:01:53;8.70;;;4.32;;
75928;SDS011;64606;44.062;2.986;2023-06-01T03:04:19;11.13;;;5.57;;
75928;SDS011;64606;44.062;2.986;2023-06-01T03:06:45;9.52;;;5.13;;
75928;SDS011;64606;44.062;2.986;2023-06-01T03:09:11;7.80;;;3.72;;
75928;SDS011;64606;44.062;2.986;2023-06-01T03:11:41;7.93;;;3.70;;
75928;SDS011;64606;44.062;2.986;2023-06-01T03:14:07;7.15;;;4.05;;
75928;SDS011;64606;44.062;2.986;2023-06-01T03:16:33;5.97;;;3.83;;
75928;SDS011;64606;44.062;2.986;2023-06-01T03:19:02;9.18;;;3.80;;
75928;SDS011;64606;44.062;2.986;2023-06-01T03:21:28;7.88;;;3.90;;
75928;SDS011;64606;44.062;2.986;2023-06-01T03:23:56;7.38;;;4.35;;
75928;SDS011;64606;44.062;2.986;2023-06-01T03:26:22;8.50;;;4.20;;
75928;SDS011;64606;44.062;2.986;2023-06-01T03:28:49;7.82;;;4.50;;
75928;SDS011;64606;44.062;2.986;2023-06-01T03:31:15;10.63;;;5.05;;
75928;SDS011;64606;44.062;2.986;2023-06-01T03:33:42;8.88;;;4.88;;
75928;SDS011;64606;44.062;2.986;2023-06-01T03:36:08;11.60;;;4.95;;
75928;SDS011;64606;44.062;2.986;2023-06-01T03:38:34;6.65;;;4.57;;
75928;SDS011;64606;44.062;2.986;2023-06-01T03:41:00;11.18;;;5.70;;
75928;SDS011;64606;44.062;2.986;2023-06-01T03:43:26;12.07;;;5.30;;
75928;SDS011;64606;44.062;2.986;2023-06-01T03:45:52;13.45;;;5.65;;
75928;SDS011;64606;44.062;2.986;2023-06-01T03:48:19;19.50;;;7.00;;
75928;SDS011;64606;44.062;2.986;2023-06-01T03:50:45;10.20;;;6.05;;
75928;SDS011;64606;44.062;2.986;2023-06-01T03:53:12;8.88;;;6.70;;
75928;SDS011;64606;44.062;2.986;2023-06-01T03:55:38;11.75;;;5.93;;
75928;SDS011;64606;44.062;2.986;2023-06-01T03:58:04;12.07;;;6.40;;
75928;SDS011;64606;44.062;2.986;2023-06-01T04:00:30;12.35;;;6.10;;
75928;SDS011;64606;44.062;2.986;2023-06-01T04:02:57;10.50;;;5.85;;
75928;SDS011;64606;44.062;2.986;2023-06-01T04:05:24;10.65;;;5.25;;
75928;SDS011;64606;44.062;2.986;2023-06-01T04:07:52;7.80;;;5.60;;
75928;SDS011;64606;44.062;2.986;2023-06-01T04:10:18;10.75;;;5.72;;
75928;SDS011;64606;44.062;2.986;2023-06-01T04:12:45;8.85;;;4.85;;
75928;SDS011;64606;44.062;2.986;2023-06-01T04:15:12;9.90;;;5.07;;
75928;SDS011;64606;44.062;2.986;2023-06-01T04:17:39;10.35;;;5.47;;
75928;SDS011;64606;44.062;2.986;2023-06-01T04:20:06;10.38;;;5.65;;
75928;SDS011;64606;44.062;2.986;2023-06-01T04:22:32;11.70;;;5.82;;
75928;SDS011;64606;44.062;2.986;2023-06-01T04:24:59;7.93;;;5.10;;
75928;SDS011;64606;44.062;2.986;2023-06-01T04:27:25;9.82;;;5.68;;
75928;SDS011;64606;44.062;2.986;2023-06-01T04:29:52;12.23;;;5.43;;
75928;SDS011;64606;44.062;2.986;2023-06-01T04:32:18;10.95;;;5.72;;
75928;SDS011;64606;44.062;2.986;2023-06-01T04:34:48;9.88;;;5.50;;
75928;SDS011;64606;44.062;2.986;2023-06-01T04:37:17;8.98;;;5.57;;
75928;SDS011;64606;44.062;2.986;2023-06-01T04:39:46;10.07;;;5.88;;
75928;SDS011;64606;44.062;2.986;2023-06-01T04:42:16;11.95;;;5.85;;
75928;SDS011;64606;44.062;2.986;2023-06-01T04:44:44;8.32;;;5.57;;
75928;SDS011;64606;44.062;2.986;2023-06-01T04:47:17;11.15;;;5.55;;
75928;SDS011;64606;44.062;2.986;2023-06-01T04:49:46;12.55;;;6.13;;
75928;SDS011;64606;44.062;2.986;2023-06-01T04:52:12;9.75;;;5.45;;
75928;SDS011;64606;44.062;2.986;2023-06-01T04:54:38;9.65;;;5.90;;
75928;SDS011;64606;44.062;2.986;2023-06-01T04:57:04;8.93;;;5.60;;
75928;SDS011;64606;44.062;2.986;2023-06-01T04:59:34;10.95;;;6.00;;
75928;SDS011;64606;44.062;2.986;2023-06-01T05:02:00;9.27;;;5.43;;
75928;SDS011;64606;44.062;2.986;2023-06-01T05:04:26;11.57;;;5.88;;
75928;SDS011;64606;44.062;2.986;2023-06-01T05:06:52;9.35;;;5.80;;
75928;SDS011;64606;44.062;2.986;2023-06-01T05:09:18;11.18;;;6.13;;
75928;SDS011;64606;44.062;2.986;2023-06-01T05:11:44;9.70;;;5.97;;
75928;SDS011;64606;44.062;2.986;2023-06-01T05:14:10;9.57;;;5.80;;
75928;SDS011;64606;44.062;2.986;2023-06-01T05:16:37;11.60;;;6.38;;
75928;SDS011;64606;44.062;2.986;2023-06-01T05:19:03;10.13;;;5.88;;
75928;SDS011;64606;44.062;2.986;2023-06-01T05:21:29;9.63;;;6.30;;
75928;SDS011;64606;44.062;2.986;2023-06-01T05:23:57;11.20;;;6.55;;
75928;SDS011;64606;44.062;2.986;2023-06-01T05:26:23;8.98;;;5.82;;
75928;SDS011;64606;44.062;2.986;2023-06-01T05:28:50;9.15;;;5.88;;
75928;SDS011;64606;44.062;2.986;2023-06-01T05:31:16;8.20;;;5.55;;
75928;SDS011;64606;44.062;2.986;2023-06-01T05:33:42;8.70;;;5.72;;
75928;SDS011;64606;44.062;2.986;2023-06-01T05:36:08;10.93;;;6.00;;
75928;SDS011;64606;44.062;2.986;2023-06-01T05:38:35;8.50;;;5.57;;
75928;SDS011;64606;44.062;2.986;2023-06-01T05:41:02;8.68;;;5.38;;
75928;SDS011;64606;44.062;2.986;2023-06-01T05:43:28;10.50;;;6.25;;
75928;SDS011;64606;44.062;2.986;2023-06-01T05:45:54;11.23;;;6.10;;
75928;SDS011;64606;44.062;2.986;2023-06-01T05:48:20;9.13;;;5.38;;
75928;SDS011;64606;44.062;2.986;2023-06-01T05:50:46;10.48;;;6.20;;
75928;SDS011;64606;44.062;2.986;2023-06-01T05:53:12;10.63;;;6.18;;
75928;SDS011;64606;44.062;2.986;2023-06-01T05:55:38;11.50;;;5.75;;
75928;SDS011;64606;44.062;2.986;2023-06-01T05:58:05;10.77;;;6.20;;
75928;SDS011;64606;44.062;2.986;2023-06-01T06:00:32;9.50;;;5.70;;
75928;SDS011;64606;44.062;2.986;2023-06-01T06:03:02;9.40;;;6.03;;
75928;SDS011;64606;44.062;2.986;2023-06-01T06:05:29;11.73;;;5.97;;
75928;SDS011;64606;44.062;2.986;2023-06-01T06:07:55;13.45;;;6.47;;
75928;SDS011;64606;44.062;2.986;2023-06-01T06:10:21;8.10;;;5.63;;
75928;SDS011;64606;44.062;2.986;2023-06-01T06:12:47;10.95;;;5.80;;
75928;SDS011;64606;44.062;2.986;2023-06-01T06:15:13;8.57;;;6.00;;
75928;SDS011;64606;44.062;2.986;2023-06-01T06:17:40;6.63;;;5.18;;
75928;SDS011;64606;44.062;2.986;2023-06-01T06:20:06;8.45;;;5.95;;
75928;SDS011;64606;44.062;2.986;2023-06-01T06:22:32;9.13;;;5.85;;
75928;SDS011;64606;44.062;2.986;2023-06-01T06:24:58;7.07;;;5.40;;
75928;SDS011;64606;44.062;2.986;2023-06-01T06:27:25;8.93;;;6.05;;
75928;SDS011;64606;44.062;2.986;2023-06-01T06:29:51;9.38;;;5.88;;
75928;SDS011;64606;44.062;2.986;2023-06-01T06:32:17;11.27;;;5.82;;
75928;SDS011;64606;44.062;2.986;2023-06-01T06:34:45;14.65;;;5.93;;
75928;SDS011;64606;44.062;2.986;2023-06-01T06:37:11;15.23;;;6.03;;
75928;SDS011;64606;44.062;2.986;2023-06-01T06:39:37;8.25;;;5.53;;
75928;SDS011;64606;44.062;2.986;2023-06-01T06:42:04;10.85;;;6.22;;
75928;SDS011;64606;44.062;2.986;2023-06-01T06:44:30;7.93;;;5.68;;
75928;SDS011;64606;44.062;2.986;2023-06-01T06:46:57;10.35;;;5.60;;
75928;SDS011;64606;44.062;2.986;2023-06-01T06:49:24;9.38;;;5.25;;
75928;SDS011;64606;44.062;2.986;2023-06-01T06:51:50;8.63;;;5.30;;
75928;SDS011;64606;44.062;2.986;2023-06-01T06:54:16;8.20;;;5.72;;
75928;SDS011;64606;44.062;2.986;2023-06-01T06:56:42;9.30;;;5.53;;
75928;SDS011;64606;44.062;2.986;2023-06-01T06:59:10;12.73;;;5.80;;
75928;SDS011;64606;44.062;2.986;2023-06-01T07:01:36;9.15;;;5.15;;
75928;SDS011;64606;44.062;2.986;2023-06-01T07:04:05;7.88;;;5.43;;
75928;SDS011;64606;44.062;2.986;2023-06-01T07:06:31;8.60;;;5.72;;
75928;SDS011;64606;44.062;2.986;2023-06-01T07:08:58;6.82;;;5.07;;
75928;SDS011;64606;44.062;2.986;2023-06-01T07:11:25;7.90;;;5.38;;
75928;SDS011;64606;44.062;2.986;2023-06-01T07:13:52;10.63;;;5.38;;
75928;SDS011;64606;44.062;2.986;2023-06-01T07:16:18;11.45;;;5.78;;
75928;SDS011;64606;44.062;2.986;2023-06-01T07:18:44;11.77;;;6.22;;
75928;SDS011;64606;44.062;2.986;2023-06-01T07:21:10;9.30;;;5.85;;
75928;SDS011;64606;44.062;2.986;2023-06-01T07:23:37;13.07;;;6.13;;
75928;SDS011;64606;44.062;2.986;2023-06-01T07:26:03;10.18;;;5.57;;
75928;SDS011;64606;44.062;2.986;2023-06-01T07:28:29;11.70;;;6.00;;
75928;SDS011;64606;44.062;2.986;2023-06-01T07:30:55;9.15;;;6.20;;
75928;SDS011;64606;44.062;2.986;2023-06-01T07:33:21;8.43;;;5.82;;
75928;SDS011;64606;44.062;2.986;2023-06-01T07:35:47;9.95;;;5.47;;
75928;SDS011;64606;44.062;2.986;2023-06-01T07:38:18;13.32;;;5.70;;
75928;SDS011;64606;44.062;2.986;2023-06-01T07:40:46;10.00;;;5.82;;
75928;SDS011;64606;44.062;2.986;2023-06-01T07:43:12;13.98;;;5.93;;
75928;SDS011;64606;44.062;2.986;2023-06-01T07:45:39;14.75;;;5.97;;
75928;SDS011;64606;44.062;2.986;2023-06-01T07:48:08;8.77;;;5.40;;
75928;SDS011;64606;44.062;2.986;2023-06-01T07:50:35;11.80;;;5.63;;
75928;SDS011;64606;44.062;2.986;2023-06-01T07:53:02;11.63;;;5.78;;
75928;SDS011;64606;44.062;2.986;2023-06-01T07:55:28;13.88;;;5.60;;
75928;SDS011;64606;44.062;2.986;2023-06-01T07:57:54;11.50;;;5.90;;
75928;SDS011;64606;44.062;2.986;2023-06-01T08:00:20;10.77;;;5.30;;
75928;SDS011;64606;44.062;2.986;2023-06-01T08:02:47;10.13;;;5.22;;
75928;SDS011;64606;44.062;2.986;2023-06-01T08:05:13;12.00;;;5.70;;
75928;SDS011;64606;44.062;2.986;2023-06-01T08:07:43;18.25;;;5.88;;
75928;SDS011;64606;44.062;2.986;2023-06-01T08:10:11;24.85;;;5.70;;
75928;SDS011;64606;44.062;2.986;2023-06-01T08:12:37;12.60;;;5.40;;
75928;SDS011;64606;44.062;2.986;2023-06-01T08:15:03;19.05;;;6.28;;
75928;SDS011;64606;44.062;2.986;2023-06-01T08:17:30;13.18;;;5.55;;
75928;SDS011;64606;44.062;2.986;2023-06-01T08:19:57;9.15;;;5.28;;
75928;SDS011;64606;44.062;2.986;2023-06-01T08:22:23;8.32;;;4.80;;
75928;SDS011;64606;44.062;2.986;2023-06-01T08:24:49;7.25;;;5.05;;
75928;SDS011;64606;44.062;2.986;2023-06-01T08:27:22;11.85;;;5.18;;
75928;SDS011;64606;44.062;2.986;2023-06-01T08:29:48;11.95;;;5.22;;
75928;SDS011;64606;44.062;2.986;2023-06-01T08:32:15;8.95;;;5.13;;
75928;SDS011;64606;44.062;2.986;2023-06-01T08:34:45;11.63;;;4.88;;
75928;SDS011;64606;44.062;2.986;2023-06-01T08:37:15;9.55;;;5.03;;
75928;SDS011;64606;44.062;2.986;2023-06-01T08:39:41;9.93;;;4.97;;
75928;SDS011;64606;44.062;2.986;2023-06-01T08:44:54;11.50;;;5.88;;
75928;SDS011;64606;44.062;2.986;2023-06-01T08:47:21;8.18;;;4.80;;
75928;SDS011;64606;44.062;2.986;2023-06-01T08:49:49;9.27;;;5.07;;
75928;SDS011;64606;44.062;2.986;2023-06-01T08:52:18;6.82;;;4.90;;
75928;SDS011;64606;44.062;2.986;2023-06-01T08:54:45;7.43;;;5.00;;
75928;SDS011;64606;44.062;2.986;2023-06-01T08:57:12;9.05;;;5.07;;
75928;SDS011;64606;44.062;2.986;2023-06-01T08:59:38;9.60;;;4.50;;
75928;SDS011;64606;44.062;2.986;2023-06-01T09:02:04;10.02;;;5.07;;
75928;SDS011;64606;44.062;2.986;2023-06-01T09:04:33;6.25;;;4.55;;
75928;SDS011;64606;44.062;2.986;2023-06-01T09:07:02;7.38;;;4.70;;
75928;SDS011;64606;44.062;2.986;2023-06-01T09:09:29;6.20;;;4.28;;
75928;SDS011;64606;44.062;2.986;2023-06-01T09:14:40;9.63;;;5.75;;
75928;SDS011;64606;44.062;2.986;2023-06-01T09:17:06;6.85;;;5.13;;
75928;SDS011;64606;44.062;2.986;2023-06-01T09:19:42;10.40;;;5.22;;
75928;SDS011;64606;44.062;2.986;2023-06-01T09:22:11;7.38;;;4.65;;
75928;SDS011;64606;44.062;2.986;2023-06-01T09:24:38;6.47;;;4.43;;
75928;SDS011;64606;44.062;2.986;2023-06-01T09:27:06;6.25;;;4.28;;
75928;SDS011;64606;44.062;2.986;2023-06-01T09:29:32;8.40;;;4.45;;
75928;SDS011;64606;44.062;2.986;2023-06-01T09:32:01;7.65;;;4.95;;
75928;SDS011;64606;44.062;2.986;2023-06-01T09:34:27;7.13;;;4.38;;
75928;SDS011;64606;44.062;2.986;2023-06-01T09:36:55;8.65;;;4.60;;
75928;SDS011;64606;44.062;2.986;2023-06-01T09:39:22;8.00;;;4.88;;
75928;SDS011;64606;44.062;2.986;2023-06-01T09:41:53;9.05;;;4.43;;
75928;SDS011;64606;44.062;2.986;2023-06-01T09:44:33;9.45;;;4.57;;
75928;SDS011;64606;44.062;2.986;2023-06-01T09:47:04;8.27;;;4.68;;
75928;SDS011;64606;44.062;2.986;2023-06-01T09:49:31;8.52;;;4.30;;
75928;SDS011;64606;44.062;2.986;2023-06-01T09:54:40;7.47;;;4.30;;
75928;SDS011;64606;44.062;2.986;2023-06-01T09:57:07;8.30;;;4.68;;
75928;SDS011;64606;44.062;2.986;2023-06-01T09:59:46;5.40;;;3.88;;
75928;SDS011;64606;44.062;2.986;2023-06-01T10:02:13;5.32;;;4.00;;
75928;SDS011;64606;44.062;2.986;2023-06-01T10:04:40;9.23;;;4.00;;
75928;SDS011;64606;44.062;2.986;2023-06-01T10:07:06;7.22;;;3.97;;
75928;SDS011;64606;44.062;2.986;2023-06-01T10:09:36;6.22;;;4.53;;
75928;SDS011;64606;44.062;2.986;2023-06-01T10:12:04;8.30;;;4.55;;
75928;SDS011;64606;44.062;2.986;2023-06-01T10:14:30;12.45;;;4.50;;
75928;SDS011;64606;44.062;2.986;2023-06-01T10:16:57;6.28;;;4.00;;
75928;SDS011;64606;44.062;2.986;2023-06-01T10:19:23;7.72;;;4.47;;
75928;SDS011;64606;44.062;2.986;2023-06-01T10:21:49;7.88;;;4.28;;
75928;SDS011;64606;44.062;2.986;2023-06-01T10:24:18;5.75;;;4.10;;
75928;SDS011;64606;44.062;2.986;2023-06-01T10:27:07;8.40;;;4.15;;
75928;SDS011;64606;44.062;2.986;2023-06-01T10:29:31;5.72;;;3.72;;
75928;SDS011;64606;44.062;2.986;2023-06-01T10:31:57;6.15;;;4.40;;
75928;SDS011;64606;44.062;2.986;2023-06-01T10:34:57;7.53;;;4.10;;
75928;SDS011;64606;44.062;2.986;2023-06-01T10:37:17;6.00;;;4.22;;
75928;SDS011;64606;44.062;2.986;2023-06-01T10:39:43;7.70;;;4.40;;
75928;SDS011;64606;44.062;2.986;2023-06-01T10:54:50;6.55;;;4.40;;
75928;SDS011;64606;44.062;2.986;2023-06-01T10:57:23;8.85;;;4.13;;
75928;SDS011;64606;44.062;2.986;2023-06-01T11:02:35;8.15;;;4.38;;
75928;SDS011;64606;44.062;2.986;2023-06-01T11:07:53;6.22;;;4.28;;
75928;SDS011;64606;44.062;2.986;2023-06-01T11:16:28;7.47;;;3.90;;
75928;SDS011;64606;44.062;2.986;2023-06-01T11:21:18;6.43;;;3.90;;
75928;SDS011;64606;44.062;2.986;2023-06-01T11:23:46;9.20;;;3.95;;
75928;SDS011;64606;44.062;2.986;2023-06-01T11:26:16;8.52;;;4.20;;
75928;SDS011;64606;44.062;2.986;2023-06-01T11:28:43;5.38;;;3.85;;
75928;SDS011;64606;44.062;2.986;2023-06-01T11:31:10;6.43;;;3.67;;
75928;SDS011;64606;44.062;2.986;2023-06-01T11:33:40;7.00;;;4.13;;
75928;SDS011;64606;44.062;2.986;2023-06-01T11:36:09;4.97;;;3.95;;
75928;SDS011;64606;44.062;2.986;2023-06-01T11:38:39;11.15;;;4.70;;
75928;SDS011;64606;44.062;2.986;2023-06-01T11:41:05;6.63;;;3.72;;
75928;SDS011;64606;44.062;2.986;2023-06-01T11:43:32;5.82;;;4.03;;
75928;SDS011;64606;44.062;2.986;2023-06-01T11:46:02;8.10;;;3.90;;
75928;SDS011;64606;44.062;2.986;2023-06-01T11:48:28;6.00;;;3.67;;
75928;SDS011;64606;44.062;2.986;2023-06-01T11:50:54;4.90;;;3.50;;
75928;SDS011;64606;44.062;2.986;2023-06-01T11:53:23;5.72;;;3.92;;
75928;SDS011;64606;44.062;2.986;2023-06-01T11:55:53;11.20;;;4.15;;
75928;SDS011;64606;44.062;2.986;2023-06-01T11:58:29;7.47;;;3.78;;
75928;SDS011;64606;44.062;2.986;2023-06-01T12:00:56;5.03;;;3.60;;
75928;SDS011;64606;44.062;2.986;2023-06-01T12:03:23;6.05;;;3.78;;
75928;SDS011;64606;44.062;2.986;2023-06-01T12:05:49;7.53;;;3.78;;
75928;SDS011;64606;44.062;2.986;2023-06-01T12:08:22;7.78;;;4.00;;
75928;SDS011;64606;44.062;2.986;2023-06-01T12:10:50;7.13;;;3.65;;
75928;SDS011;64606;44.062;2.986;2023-06-01T12:13:17;6.80;;;4.05;;
75928;SDS011;64606;44.062;2.986;2023-06-01T12:15:44;7.32;;;4.20;;
75928;SDS011;64606;44.062;2.986;2023-06-01T12:18:10;11.85;;;3.80;;
75928;SDS011;64606;44.062;2.986;2023-06-01T12:20:37;4.63;;;3.55;;
75928;SDS011;64606;44.062;2.986;2023-06-01T12:25:51;7.43;;;3.72;;
75928;SDS011;64606;44.062;2.986;2023-06-01T12:28:18;5.57;;;3.28;;
75928;SDS011;64606;44.062;2.986;2023-06-01T12:30:44;6.40;;;3.97;;
75928;SDS011;64606;44.062;2.986;2023-06-01T12:33:35;8.80;;;4.10;;
75928;SDS011;64606;44.062;2.986;2023-06-01T12:36:00;6.90;;;3.67;;
75928;SDS011;64606;44.062;2.986;2023-06-01T12:38:26;6.95;;;3.72;;
75928;SDS011;64606;44.062;2.986;2023-06-01T12:41:06;10.90;;;3.80;;
75928;SDS011;64606;44.062;2.986;2023-06-01T12:43:33;4.60;;;3.60;;
75928;SDS011;64606;44.062;2.986;2023-06-01T12:45:59;5.70;;;3.80;;
75928;SDS011;64606;44.062;2.986;2023-06-01T12:48:33;6.63;;;3.63;;
75928;SDS011;64606;44.062;2.986;2023-06-01T12:51:00;6.53;;;3.90;;
75928;SDS011;64606;44.062;2.986;2023-06-01T12:53:27;10.65;;;3.95;;
75928;SDS011;64606;44.062;2.986;2023-06-01T12:55:53;6.00;;;3.60;;
75928;SDS011;64606;44.062;2.986;2023-06-01T12:58:19;8.13;;;3.85;;
75928;SDS011;64606;44.062;2.986;2023-06-01T13:00:46;6.82;;;3.72;;
75928;SDS011;64606;44.062;2.986;2023-06-01T13:03:13;6.20;;;3.90;;
75928;SDS011;64606;44.062;2.986;2023-06-01T13:05:43;6.88;;;4.22;;
75928;SDS011;64606;44.062;2.986;2023-06-01T13:08:12;10.35;;;4.80;;
75928;SDS011;64606;44.062;2.986;2023-06-01T13:10:39;5.57;;;3.85;;
75928;SDS011;64606;44.062;2.986;2023-06-01T13:13:06;6.20;;;3.92;;
75928;SDS011;64606;44.062;2.986;2023-06-01T13:15:32;15.60;;;4.20;;
75928;SDS011;64606;44.062;2.986;2023-06-01T13:17:59;5.53;;;3.90;;
75928;SDS011;64606;44.062;2.986;2023-06-01T13:20:25;5.18;;;3.60;;
75928;SDS011;64606;44.062;2.986;2023-06-01T13:22:51;5.68;;;3.72;;
75928;SDS011;64606;44.062;2.986;2023-06-01T13:25:17;6.40;;;3.67;;
75928;SDS011;64606;44.062;2.986;2023-06-01T13:27:47;4.85;;;3.30;;
75928;SDS011;64606;44.062;2.986;2023-06-01T13:30:13;5.88;;;3.60;;
75928;SDS011;64606;44.062;2.986;2023-06-01T13:32:39;8.13;;;3.50;;
75928;SDS011;64606;44.062;2.986;2023-06-01T13:35:05;5.00;;;3.95;;
75928;SDS011;64606;44.062;2.986;2023-06-01T13:37:32;7.72;;;3.78;;
75928;SDS011;64606;44.062;2.986;2023-06-01T13:39:58;5.03;;;3.72;;
75928;SDS011;64606;44.062;2.986;2023-06-01T13:42:24;8.00;;;4.13;;
75928;SDS011;64606;44.062;2.986;2023-06-01T13:44:50;6.28;;;3.65;;
75928;SDS011;64606;44.062;2.986;2023-06-01T13:47:17;5.75;;;4.13;;
75928;SDS011;64606;44.062;2.986;2023-06-01T13:49:44;5.15;;;3.83;;
75928;SDS011;64606;44.062;2.986;2023-06-01T13:52:10;6.18;;;3.90;;
75928;SDS011;64606;44.062;2.986;2023-06-01T13:54:36;5.78;;;4.40;;
75928;SDS011;64606;44.062;2.986;2023-06-01T13:57:03;6.15;;;4.20;;
75928;SDS011;64606;44.062;2.986;2023-06-01T13:59:30;6.30;;;3.88;;
75928;SDS011;64606;44.062;2.986;2023-06-01T14:01:58;5.35;;;3.90;;
75928;SDS011;64606;44.062;2.986;2023-06-01T14:04:25;8.50;;;4.00;;
75928;SDS011;64606;44.062;2.986;2023-06-01T14:06:51;5.55;;;3.80;;
75928;SDS011;64606;44.062;2.986;2023-06-01T14:09:17;5.03;;;3.72;;
75928;SDS011;64606;44.062;2.986;2023-06-01T14:11:43;8.63;;;3.97;;
75928;SDS011;64606;44.062;2.986;2023-06-01T14:14:09;5.47;;;4.05;;
75928;SDS011;64606;44.062;2.986;2023-06-01T14:16:36;5.68;;;3.67;;
75928;SDS011;64606;44.062;2.986;2023-06-01T14:19:02;5.35;;;3.38;;
75928;SDS011;64606;44.062;2.986;2023-06-01T14:21:28;6.13;;;3.63;;
75928;SDS011;64606;44.062;2.986;2023-06-01T14:23:56;5.30;;;4.07;;
75928;SDS011;64606;44.062;2.986;2023-06-01T14:26:22;6.22;;;3.70;;
75928;SDS011;64606;44.062;2.986;2023-06-01T14:28:49;7.43;;;3.55;;
75928;SDS011;64606;44.062;2.986;2023-06-01T14:31:15;5.85;;;3.83;;
75928;SDS011;64606;44.062;2.986;2023-06-01T14:33:41;6.93;;;3.78;;
75928;SDS011;64606;44.062;2.986;2023-06-01T14:36:08;5.72;;;4.13;;
75928;SDS011;64606;44.062;2.986;2023-06-01T14:38:34;12.35;;;3.80;;
75928;SDS011;64606;44.062;2.986;2023-06-01T14:41:00;8.50;;;4.30;;
75928;SDS011;64606;44.062;2.986;2023-06-01T14:43:26;7.28;;;4.10;;
75928;SDS011;64606;44.062;2.986;2023-06-01T14:45:54;5.53;;;4.00;;
75928;SDS011;64606;44.062;2.986;2023-06-01T14:48:21;11.18;;;4.45;;
75928;SDS011;64606;44.062;2.986;2023-06-01T14:50:47;5.45;;;4.00;;
75928;SDS011;64606;44.062;2.986;2023-06-01T14:53:13;5.68;;;3.75;;
75928;SDS011;64606;44.062;2.986;2023-06-01T14:55:39;5.35;;;4.18;;
75928;SDS011;64606;44.062;2.986;2023-06-01T14:58:06;6.60;;;4.03;;
75928;SDS011;64606;44.062;2.986;2023-06-01T15:00:32;6.80;;;4.15;;
75928;SDS011;64606;44.062;2.986;2023-06-01T15:02:58;9.02;;;4.18;;
75928;SDS011;64606;44.062;2.986;2023-06-01T15:05:24;6.18;;;4.25;;
75928;SDS011;64606;44.062;2.986;2023-06-01T15:07:51;6.80;;;4.05;;
75928;SDS011;64606;44.062;2.986;2023-06-01T15:10:17;7.88;;;3.80;;
75928;SDS011;64606;44.062;2.986;2023-06-01T15:12:43;6.22;;;4.22;;
75928;SDS011;64606;44.062;2.986;2023-06-01T15:15:09;4.57;;;3.70;;
75928;SDS011;64606;44.062;2.986;2023-06-01T15:17:35;5.00;;;3.70;;
75928;SDS011;64606;44.062;2.986;2023-06-01T15:20:01;5.68;;;3.83;;
75928;SDS011;64606;44.062;2.986;2023-06-01T15:22:28;5.63;;;3.58;;
75928;SDS011;64606;44.062;2.986;2023-06-01T15:24:54;6.40;;;3.92;;
75928;SDS011;64606;44.062;2.986;2023-06-01T15:27:20;6.88;;;3.80;;
75928;SDS011;64606;44.062;2.986;2023-06-01T15:29:46;6.28;;;3.85;;